CheckWX is a tool to help pilots better visualize weather data.  It is not intended as a substitute for an official pre-flight weather briefing.

14:22:24 UTC

KSYM METAR
Morehead-Rowan County Clyde A Thomas Regional Airport
Morehead, Kentucky, USA
Current

27 mins ago

KSYM 261355Z AUTO 30015G23KT 270V330 2 1/2SM -RA FEW007 BKN010 BKN014 10/09 A2965 RMK AO2
Observed
Apr-26 @ 13:55 UTC
Wind
  • 300° at 15 KTS
  • Gusting to 23 KTS
Visibility
2 1/2 SM
Flight Rules
IFR
Conditions
Light Rain
Cloud Levels
  • Few at 700' AGL
  • Broken at 1,000' AGL
  • Broken at 1,400' AGL
Temperature
10°C / 50°F
Dewpoint
C / 48°F
Humidity
94%
Altimeter
29.65" Hg
Pressure
1004.02 hPa
Previous

47 mins ago

KSYM 261335Z AUTO 25010G17KT 200V280 2SM -RA BKN007 BKN013 BKN019 12/11 A2962 RMK AO2
Observed
Apr-26 @ 13:35 UTC
Wind
  • 250° at 10 KTS
  • Gusting to 17 KTS
Visibility
2 SM
Flight Rules
IFR
Conditions
Light Rain
Cloud Levels
  • Broken at 700' AGL
  • Broken at 1,300' AGL
  • Broken at 1,900' AGL
Temperature
12°C / 54°F
Dewpoint
11°C / 52°F
Humidity
94%
Altimeter
29.62" Hg
Pressure
1003.02 hPa
Previous

1 hour ago

KSYM 261320Z AUTO 26010G16KT 230V290 1 1/2SM -RA BKN008 OVC014 13/12 A2961 RMK AO2
Observed
Apr-26 @ 13:20 UTC
Wind
  • 260° at 10 KTS
  • Gusting to 16 KTS
Visibility
1 1/2 SM
Flight Rules
IFR
Conditions
Light Rain
Cloud Levels
  • Broken at 800' AGL
  • Overcast at 1,400' AGL
Temperature
13°C / 55°F
Dewpoint
12°C / 54°F
Humidity
94%
Altimeter
29.61" Hg
Pressure
1002.72 hPa